sensor_id;sensor_type;location;lat;lon;timestamp;pressure;altitude;pressure_sealevel;temperature;humidity
21760;BME280;11041;50.854;20.580;2023-04-20T00:02:18;98920.69;;;6.26;99.11
21760;BME280;11041;50.854;20.580;2023-04-20T00:04:44;98924.47;;;6.30;99.58
21760;BME280;11041;50.854;20.580;2023-04-20T00:07:11;98911.66;;;6.30;99.30
21760;BME280;11041;50.854;20.580;2023-04-20T00:09:38;98924.44;;;6.35;99.38
21760;BME280;11041;50.854;20.580;2023-04-20T00:12:05;98918.97;;;6.35;99.12
21760;BME280;11041;50.854;20.580;2023-04-20T00:14:31;98913.78;;;6.38;99.03
21760;BME280;11041;50.854;20.580;2023-04-20T00:16:58;98927.16;;;6.40;98.72
21760;BME280;11041;50.854;20.580;2023-04-20T00:19:24;98910.81;;;6.30;99.20
21760;BME280;11041;50.854;20.580;2023-04-20T00:21:53;98917.34;;;6.34;99.37
21760;BME280;11041;50.854;20.580;2023-04-20T00:24:20;98907.53;;;6.33;99.39
21760;BME280;11041;50.854;20.580;2023-04-20T00:26:46;98914.63;;;6.34;99.67
21760;BME280;11041;50.854;20.580;2023-04-20T00:29:13;98912.47;;;6.31;100.00
21760;BME280;11041;50.854;20.580;2023-04-20T00:31:39;98910.59;;;6.26;100.00
21760;BME280;11041;50.854;20.580;2023-04-20T00:34:06;98918.16;;;6.34;100.00
21760;BME280;11041;50.854;20.580;2023-04-20T00:36:33;98908.09;;;6.30;100.00
21760;BME280;11041;50.854;20.580;2023-04-20T00:38:59;98911.59;;;6.40;100.00
21760;BME280;11041;50.854;20.580;2023-04-20T00:41:26;98908.84;;;6.40;100.00
21760;BME280;11041;50.854;20.580;2023-04-20T00:43:53;98899.56;;;6.42;100.00
21760;BME280;11041;50.854;20.580;2023-04-20T00:46:21;98904.16;;;6.46;100.00
21760;BME280;11041;50.854;20.580;2023-04-20T00:48:50;98901.44;;;6.46;100.00
21760;BME280;11041;50.854;20.580;2023-04-20T00:51:18;98912.09;;;6.48;100.00
21760;BME280;11041;50.854;20.580;2023-04-20T00:53:45;98923.78;;;6.53;100.00
21760;BME280;11041;50.854;20.580;2023-04-20T00:56:15;98916.91;;;6.56;100.00
21760;BME280;11041;50.854;20.580;2023-04-20T00:58:42;98919.91;;;6.59;100.00
21760;BME280;11041;50.854;20.580;2023-04-20T01:01:10;98919.38;;;6.57;100.00
21760;BME280;11041;50.854;20.580;2023-04-20T01:03:39;98916.59;;;6.63;100.00
21760;BME280;11041;50.854;20.580;2023-04-20T01:06:08;98924.78;;;6.63;100.00
21760;BME280;11041;50.854;20.580;2023-04-20T01:08:35;98919.06;;;6.64;100.00
21760;BME280;11041;50.854;20.580;2023-04-20T01:11:01;98906.78;;;6.61;100.00
21760;BME280;11041;50.854;20.580;2023-04-20T01:13:28;98910.03;;;6.64;100.00
21760;BME280;11041;50.854;20.580;2023-04-20T01:15:58;98899.09;;;6.64;100.00
21760;BME280;11041;50.854;20.580;2023-04-20T01:18:25;98913.78;;;6.73;100.00
21760;BME280;11041;50.854;20.580;2023-04-20T01:20:52;98899.59;;;6.71;100.00
21760;BME280;11041;50.854;20.580;2023-04-20T01:23:18;98907.47;;;6.77;100.00
21760;BME280;11041;50.854;20.580;2023-04-20T01:25:45;98906.66;;;6.77;99.81
21760;BME280;11041;50.854;20.580;2023-04-20T01:28:12;98905.84;;;6.76;99.90
21760;BME280;11041;50.854;20.580;2023-04-20T01:30:39;98894.66;;;6.73;99.42
21760;BME280;11041;50.854;20.580;2023-04-20T01:33:06;98902.00;;;6.77;99.38
21760;BME280;11041;50.854;20.580;2023-04-20T01:35:32;98895.19;;;6.75;99.62
21760;BME280;11041;50.854;20.580;2023-04-20T01:37:59;98893.28;;;6.75;100.00
21760;BME280;11041;50.854;20.580;2023-04-20T01:40:25;98902.25;;;6.81;100.00
21760;BME280;11041;50.854;20.580;2023-04-20T01:42:52;98902.53;;;6.79;99.93
21760;BME280;11041;50.854;20.580;2023-04-20T01:45:19;98892.72;;;6.78;99.72
21760;BME280;11041;50.854;20.580;2023-04-20T01:47:45;98896.00;;;6.75;99.50
21760;BME280;11041;50.854;20.580;2023-04-20T01:50:12;98890.31;;;6.72;99.33
21760;BME280;11041;50.854;20.580;2023-04-20T01:52:39;98896.88;;;6.71;99.65
21760;BME280;11041;50.854;20.580;2023-04-20T01:55:05;98889.50;;;6.71;99.65
21760;BME280;11041;50.854;20.580;2023-04-20T01:57:32;98897.41;;;6.73;99.74
21760;BME280;11041;50.854;20.580;2023-04-20T01:59:59;98893.63;;;6.69;99.63
21760;BME280;11041;50.854;20.580;2023-04-20T02:02:25;98894.50;;;6.64;99.26
21760;BME280;11041;50.854;20.580;2023-04-20T02:04:52;98893.41;;;6.60;99.22
21760;BME280;11041;50.854;20.580;2023-04-20T02:07:19;98899.16;;;6.58;99.86
21760;BME280;11041;50.854;20.580;2023-04-20T02:09:45;98889.63;;;6.56;99.75
21760;BME280;11041;50.854;20.580;2023-04-20T02:12:12;98902.13;;;6.62;100.00
21760;BME280;11041;50.854;20.580;2023-04-20T02:14:38;98897.75;;;6.61;100.00
21760;BME280;11041;50.854;20.580;2023-04-20T02:17:05;98897.53;;;6.57;100.00
21760;BME280;11041;50.854;20.580;2023-04-20T02:19:32;98891.06;;;6.48;100.00
21760;BME280;11041;50.854;20.580;2023-04-20T02:21:59;98898.13;;;6.49;100.00
21760;BME280;11041;50.854;20.580;2023-04-20T02:24:26;98879.63;;;6.41;100.00
21760;BME280;11041;50.854;20.580;2023-04-20T02:26:52;98893.25;;;6.46;100.00
21760;BME280;11041;50.854;20.580;2023-04-20T02:29:19;98884.28;;;6.40;100.00
21760;BME280;11041;50.854;20.580;2023-04-20T02:31:45;98894.06;;;6.47;100.00
21760;BME280;11041;50.854;20.580;2023-04-20T02:34:12;98891.31;;;6.47;100.00
21760;BME280;11041;50.854;20.580;2023-04-20T02:36:39;98897.03;;;6.50;100.00
21760;BME280;11041;50.854;20.580;2023-04-20T02:39:05;98894.03;;;6.52;100.00
21760;BME280;11041;50.854;20.580;2023-04-20T02:41:32;98882.31;;;6.46;100.00
21760;BME280;11041;50.854;20.580;2023-04-20T02:43:58;98901.06;;;6.58;100.00
21760;BME280;11041;50.854;20.580;2023-04-20T02:46:25;98884.47;;;6.54;100.00
21760;BME280;11041;50.854;20.580;2023-04-20T02:48:51;98894.81;;;6.57;100.00
21760;BME280;11041;50.854;20.580;2023-04-20T02:51:18;98895.03;;;6.61;100.00
21760;BME280;11041;50.854;20.580;2023-04-20T02:53:44;98898.03;;;6.65;100.00
21760;BME280;11041;50.854;20.580;2023-04-20T02:56:11;98900.72;;;6.70;100.00
21760;BME280;11041;50.854;20.580;2023-04-20T02:58:37;98895.81;;;6.67;100.00
21760;BME280;11041;50.854;20.580;2023-04-20T03:01:04;98882.22;;;6.61;100.00
21760;BME280;11041;50.854;20.580;2023-04-20T03:03:30;98890.38;;;6.67;100.00
21760;BME280;11041;50.854;20.580;2023-04-20T03:05:57;98888.72;;;6.66;100.00
21760;BME280;11041;50.854;20.580;2023-04-20T03:08:24;98888.66;;;6.71;100.00
21760;BME280;11041;50.854;20.580;2023-04-20T03:10:50;98884.84;;;6.72;100.00
21760;BME280;11041;50.854;20.580;2023-04-20T03:13:17;98885.91;;;6.76;100.00
21760;BME280;11041;50.854;20.580;2023-04-20T03:15:43;98883.22;;;6.71;100.00
21760;BME280;11041;50.854;20.580;2023-04-20T03:18:10;98879.66;;;6.70;100.00
21760;BME280;11041;50.854;20.580;2023-04-20T03:20:37;98891.72;;;6.69;100.00
21760;BME280;11041;50.854;20.580;2023-04-20T03:23:03;98880.63;;;6.55;100.00
21760;BME280;11041;50.854;20.580;2023-04-20T03:25:30;98896.09;;;6.65;100.00
21760;BME280;11041;50.854;20.580;2023-04-20T03:27:58;98895.03;;;6.61;100.00
21760;BME280;11041;50.854;20.580;2023-04-20T03:30:24;98883.06;;;6.57;100.00
21760;BME280;11041;50.854;20.580;2023-04-20T03:32:51;98888.00;;;6.55;100.00
21760;BME280;11041;50.854;20.580;2023-04-20T03:35:18;98897.22;;;6.59;100.00
21760;BME280;11041;50.854;20.580;2023-04-20T03:37:46;98883.97;;;6.47;100.00
21760;BME280;11041;50.854;20.580;2023-04-20T03:40:13;98886.22;;;6.40;100.00
21760;BME280;11041;50.854;20.580;2023-04-20T03:42:40;98893.00;;;6.43;100.00
21760;BME280;11041;50.854;20.580;2023-04-20T03:45:07;98885.94;;;6.36;100.00
21760;BME280;11041;50.854;20.580;2023-04-20T03:47:34;98897.97;;;6.35;100.00
21760;BME280;11041;50.854;20.580;2023-04-20T03:50:01;98896.88;;;6.36;100.00
21760;BME280;11041;50.854;20.580;2023-04-20T03:52:27;98902.59;;;6.40;100.00
21760;BME280;11041;50.854;20.580;2023-04-20T03:54:54;98897.69;;;6.37;100.00
21760;BME280;11041;50.854;20.580;2023-04-20T03:57:20;98900.16;;;6.33;100.00
21760;BME280;11041;50.854;20.580;2023-04-20T03:59:47;98900.75;;;6.30;100.00
21760;BME280;11041;50.854;20.580;2023-04-20T04:02:13;98893.41;;;6.26;100.00
21760;BME280;11041;50.854;20.580;2023-04-20T04:04:41;98898.88;;;6.26;100.00
21760;BME280;11041;50.854;20.580;2023-04-20T04:07:08;98890.38;;;6.27;100.00
21760;BME280;11041;50.854;20.580;2023-04-20T04:09:35;98903.97;;;6.32;100.00
21760;BME280;11041;50.854;20.580;2023-04-20T04:12:02;98920.63;;;6.36;100.00
21760;BME280;11041;50.854;20.580;2023-04-20T04:14:32;98912.97;;;6.38;100.00
21760;BME280;11041;50.854;20.580;2023-04-20T04:16:59;98906.97;;;6.36;100.00
21760;BME280;11041;50.854;20.580;2023-04-20T04:19:35;98913.50;;;6.40;100.00
21760;BME280;11041;50.854;20.580;2023-04-20T04:22:01;98921.13;;;6.43;100.00
21760;BME280;11041;50.854;20.580;2023-04-20T04:24:29;98904.78;;;6.38;100.00
21760;BME280;11041;50.854;20.580;2023-04-20T04:26:56;98922.47;;;6.46;100.00
21760;BME280;11041;50.854;20.580;2023-04-20T04:29:24;98924.34;;;6.50;100.00
21760;BME280;11041;50.854;20.580;2023-04-20T04:31:52;98925.16;;;6.51;100.00
21760;BME280;11041;50.854;20.580;2023-04-20T04:34:20;98910.72;;;6.45;100.00
21760;BME280;11041;50.854;20.580;2023-04-20T04:36:49;98925.72;;;6.48;100.00
21760;BME280;11041;50.854;20.580;2023-04-20T04:39:18;98930.88;;;6.49;100.00
21760;BME280;11041;50.854;20.580;2023-04-20T04:41:45;98939.63;;;6.51;100.00
21760;BME280;11041;50.854;20.580;2023-04-20T04:44:34;98936.28;;;6.59;100.00
21760;BME280;11041;50.854;20.580;2023-04-20T04:47:59;98937.63;;;6.62;100.00
21760;BME280;11041;50.854;20.580;2023-04-20T04:50:41;98937.09;;;6.60;100.00
21760;BME280;11041;50.854;20.580;2023-04-20T04:53:15;98940.63;;;6.60;100.00
21760;BME280;11041;50.854;20.580;2023-04-20T04:55:50;98936.84;;;6.61;100.00
21760;BME280;11041;50.854;20.580;2023-04-20T04:58:22;98936.25;;;6.65;100.00
21760;BME280;11041;50.854;20.580;2023-04-20T05:01:03;98939.53;;;6.67;100.00
21760;BME280;11041;50.854;20.580;2023-04-20T05:03:36;98938.63;;;6.76;100.00
21760;BME280;11041;50.854;20.580;2023-04-20T05:06:06;98946.78;;;6.81;100.00
21760;BME280;11041;50.854;20.580;2023-04-20T05:08:36;98955.16;;;6.90;100.00
21760;BME280;11041;50.854;20.580;2023-04-20T05:11:03;98945.28;;;6.94;100.00
21760;BME280;11041;50.854;20.580;2023-04-20T05:13:31;98943.38;;;6.95;100.00
21760;BME280;11041;50.854;20.580;2023-04-20T05:15:58;98939.81;;;6.94;100.00
21760;BME280;11041;50.854;20.580;2023-04-20T05:18:25;98937.00;;;7.04;100.00
21760;BME280;11041;50.854;20.580;2023-04-20T05:20:53;98957.94;;;7.14;100.00
21760;BME280;11041;50.854;20.580;2023-04-20T05:23:21;98950.75;;;7.23;100.00
21760;BME280;11041;50.854;20.580;2023-04-20T05:25:49;98967.63;;;7.31;100.00
21760;BME280;11041;50.854;20.580;2023-04-20T05:28:16;98962.41;;;7.34;100.00
21760;BME280;11041;50.854;20.580;2023-04-20T05:30:44;98957.97;;;7.38;100.00
21760;BME280;11041;50.854;20.580;2023-04-20T05:33:11;98957.09;;;7.48;100.00
21760;BME280;11041;50.854;20.580;2023-04-20T05:35:38;98951.25;;;7.55;100.00
21760;BME280;11041;50.854;20.580;2023-04-20T05:38:06;98956.31;;;7.66;100.00
21760;BME280;11041;50.854;20.580;2023-04-20T05:40:33;98959.59;;;7.68;100.00
21760;BME280;11041;50.854;20.580;2023-04-20T05:43:01;98960.34;;;7.74;100.00
21760;BME280;11041;50.854;20.580;2023-04-20T05:45:28;98960.50;;;7.83;100.00
21760;BME280;11041;50.854;20.580;2023-04-20T05:47:56;98961.91;;;7.80;99.72
21760;BME280;11041;50.854;20.580;2023-04-20T05:50:24;98959.13;;;7.85;98.20
21760;BME280;11041;50.854;20.580;2023-04-20T05:52:52;98962.44;;;7.82;98.06
21760;BME280;11041;50.854;20.580;2023-04-20T05:55:20;98964.06;;;7.83;98.30
21760;BME280;11041;50.854;20.580;2023-04-20T05:57:47;98976.59;;;7.89;98.93
21760;BME280;11041;50.854;20.580;2023-04-20T06:00:16;98971.63;;;7.92;98.88
21760;BME280;11041;50.854;20.580;2023-04-20T06:02:43;98984.13;;;7.98;99.11
21760;BME280;11041;50.854;20.580;2023-04-20T06:05:10;98978.06;;;8.01;99.14
21760;BME280;11041;50.854;20.580;2023-04-20T06:07:38;98972.56;;;8.06;99.00
21760;BME280;11041;50.854;20.580;2023-04-20T06:10:06;98990.78;;;8.16;99.00
21760;BME280;11041;50.854;20.580;2023-04-20T06:12:34;98977.38;;;8.14;98.61
21760;BME280;11041;50.854;20.580;2023-04-20T06:15:01;98984.19;;;8.17;98.50
21760;BME280;11041;50.854;20.580;2023-04-20T06:17:27;98987.91;;;8.26;98.50
21760;BME280;11041;50.854;20.580;2023-04-20T06:19:54;98980.50;;;8.26;98.32
21760;BME280;11041;50.854;20.580;2023-04-20T06:22:21;98994.63;;;8.33;97.75
21760;BME280;11041;50.854;20.580;2023-04-20T06:24:47;98987.16;;;8.39;97.89
21760;BME280;11041;50.854;20.580;2023-04-20T06:27:14;98994.50;;;8.44;97.88
21760;BME280;11041;50.854;20.580;2023-04-20T06:29:41;98993.34;;;8.50;97.79
21760;BME280;11041;50.854;20.580;2023-04-20T06:32:07;98998.66;;;8.60;97.51
21760;BME280;11041;50.854;20.580;2023-04-20T06:34:34;98984.69;;;8.62;97.39
21760;BME280;11041;50.854;20.580;2023-04-20T06:37:01;98991.41;;;8.69;97.52
21760;BME280;11041;50.854;20.580;2023-04-20T06:39:27;98996.16;;;8.83;97.80
21760;BME280;11041;50.854;20.580;2023-04-20T06:41:54;98994.16;;;8.88;97.58
21760;BME280;11041;50.854;20.580;2023-04-20T06:44:22;99000.06;;;8.95;96.56
21760;BME280;11041;50.854;20.580;2023-04-20T06:46:48;98989.28;;;8.85;95.42
21760;BME280;11041;50.854;20.580;2023-04-20T06:49:15;98989.03;;;8.82;94.07
21760;BME280;11041;50.854;20.580;2023-04-20T06:51:42;99001.25;;;8.89;94.13
21760;BME280;11041;50.854;20.580;2023-04-20T06:54:09;99006.34;;;8.96;93.85
21760;BME280;11041;50.854;20.580;2023-04-20T06:56:35;99001.41;;;8.98;94.21
21760;BME280;11041;50.854;20.580;2023-04-20T06:59:02;99000.19;;;9.04;93.95
21760;BME280;11041;50.854;20.580;2023-04-20T07:01:28;99000.19;;;9.04;92.23
21760;BME280;11041;50.854;20.580;2023-04-20T07:03:56;98991.16;;;9.04;92.05
21760;BME280;11041;50.854;20.580;2023-04-20T07:06:22;98991.38;;;9.07;91.43
21760;BME280;11041;50.854;20.580;2023-04-20T07:08:50;99007.03;;;9.21;91.64
21760;BME280;11041;50.854;20.580;2023-04-20T07:11:17;99006.47;;;9.24;91.80
21760;BME280;11041;50.854;20.580;2023-04-20T07:13:43;99002.09;;;9.23;92.05
21760;BME280;11041;50.854;20.580;2023-04-20T07:16:10;99010.66;;;9.35;92.35
21760;BME280;11041;50.854;20.580;2023-04-20T07:18:38;99009.97;;;9.43;92.59
21760;BME280;11041;50.854;20.580;2023-04-20T07:21:04;99019.94;;;9.53;92.49
21760;BME280;11041;50.854;20.580;2023-04-20T07:23:31;99020.38;;;9.60;91.92
21760;BME280;11041;50.854;20.580;2023-04-20T07:25:57;99017.72;;;9.69;91.31
21760;BME280;11041;50.854;20.580;2023-04-20T07:28:24;99011.13;;;9.70;90.18
21760;BME280;11041;50.854;20.580;2023-04-20T07:30:51;99030.16;;;9.80;87.88
21760;BME280;11041;50.854;20.580;2023-04-20T07:33:18;99030.56;;;9.87;86.64
21760;BME280;11041;50.854;20.580;2023-04-20T07:35:45;99026.38;;;9.76;85.56
21760;BME280;11041;50.854;20.580;2023-04-20T07:38:12;99035.25;;;9.87;85.41
21760;BME280;11041;50.854;20.580;2023-04-20T07:40:38;99025.69;;;9.84;85.43
21760;BME280;11041;50.854;20.580;2023-04-20T07:43:05;99027.31;;;9.85;85.24
21760;BME280;11041;50.854;20.580;2023-04-20T07:45:31;99022.94;;;9.84;84.54
21760;BME280;11041;50.854;20.580;2023-04-20T07:47:58;99024.66;;;9.80;85.04
21760;BME280;11041;50.854;20.580;2023-04-20T07:50:26;99026.50;;;9.85;85.66
21760;BME280;11041;50.854;20.580;2023-04-20T07:52:54;99029.94;;;9.90;86.85
21760;BME280;11041;50.854;20.580;2023-04-20T07:55:20;99023.44;;;10.00;87.01
21760;BME280;11041;50.854;20.580;2023-04-20T07:57:47;99029.66;;;10.06;87.11
21760;BME280;11041;50.854;20.580;2023-04-20T08:00:14;99032.72;;;10.18;86.19
21760;BME280;11041;50.854;20.580;2023-04-20T08:02:41;99040.53;;;10.24;86.46
21760;BME280;11041;50.854;20.580;2023-04-20T08:05:08;99044.31;;;10.29;86.03
21760;BME280;11041;50.854;20.580;2023-04-20T08:07:38;99041.28;;;10.30;84.19
21760;BME280;11041;50.854;20.580;2023-04-20T08:10:06;99044.84;;;10.31;85.38
21760;BME280;11041;50.854;20.580;2023-04-20T08:12:33;99056.84;;;10.35;85.80
21760;BME280;11041;50.854;20.580;2023-04-20T08:15:00;99043.59;;;10.23;85.39
21760;BME280;11041;50.854;20.580;2023-04-20T08:17:29;99046.97;;;10.20;85.61
21760;BME280;11041;50.854;20.580;2023-04-20T08:19:56;99052.75;;;10.18;86.15
21760;BME280;11041;50.854;20.580;2023-04-20T08:22:22;99050.00;;;10.18;85.65
21760;BME280;11041;50.854;20.580;2023-04-20T08:24:56;99057.72;;;10.16;87.05
21760;BME280;11041;50.854;20.580;2023-04-20T08:27:24;99053.47;;;10.10;86.99
21760;BME280;11041;50.854;20.580;2023-04-20T08:29:51;99060.88;;;10.10;86.05
21760;BME280;11041;50.854;20.580;2023-04-20T08:32:17;99061.69;;;10.10;86.93
21760;BME280;11041;50.854;20.580;2023-04-20T08:34:49;99067.91;;;10.16;86.97
21760;BME280;11041;50.854;20.580;2023-04-20T08:37:15;99060.69;;;10.20;87.75
21760;BME280;11041;50.854;20.580;2023-04-20T08:39:42;99059.16;;;10.28;86.73
21760;BME280;11041;50.854;20.580;2023-04-20T08:42:09;99066.41;;;10.37;86.82
21760;BME280;11041;50.854;20.580;2023-04-20T08:44:36;99061.59;;;10.43;87.21
21760;BME280;11041;50.854;20.580;2023-04-20T08:47:03;99057.31;;;10.51;87.68
21760;BME280;11041;50.854;20.580;2023-04-20T08:49:29;99056.22;;;10.65;87.06
21760;BME280;11041;50.854;20.580;2023-04-20T08:51:57;99063.88;;;10.77;85.45
21760;BME280;11041;50.854;20.580;2023-04-20T08:54:23;99056.53;;;10.86;85.95
21760;BME280;11041;50.854;20.580;2023-04-20T08:56:50;99067.50;;;11.00;85.25
21760;BME280;11041;50.854;20.580;2023-04-20T08:59:16;99061.75;;;11.11;84.10
21760;BME280;11041;50.854;20.580;2023-04-20T09:01:43;99064.72;;;11.14;83.22
21760;BME280;11041;50.854;20.580;2023-04-20T09:04:24;99046.44;;;11.18;83.11
21760;BME280;11041;50.854;20.580;2023-04-20T09:06:54;99070.06;;;11.33;82.69
21760;BME280;11041;50.854;20.580;2023-04-20T09:09:23;99072.03;;;11.41;82.44
21760;BME280;11041;50.854;20.580;2023-04-20T09:12:04;99070.28;;;11.45;81.74
21760;BME280;11041;50.854;20.580;2023-04-20T09:14:46;99062.72;;;11.51;82.34
21760;BME280;11041;50.854;20.580;2023-04-20T09:17:15;99051.63;;;11.65;81.29
21760;BME280;11041;50.854;20.580;2023-04-20T09:19:52;99047.59;;;11.71;81.68
21760;BME280;11041;50.854;20.580;2023-04-20T09:22:34;99064.63;;;11.96;81.15
21760;BME280;11041;50.854;20.580;2023-04-20T09:25:17;99063.72;;;12.09;78.97
21760;BME280;11041;50.854;20.580;2023-04-20T09:27:59;99062.13;;;12.17;78.23
21760;BME280;11041;50.854;20.580;2023-04-20T09:30:42;99068.31;;;12.22;77.76
21760;BME280;11041;50.854;20.580;2023-04-20T09:33:10;99047.72;;;12.28;77.73
21760;BME280;11041;50.854;20.580;2023-04-20T09:35:38;99059.13;;;12.44;77.67
21760;BME280;11041;50.854;20.580;2023-04-20T09:38:07;99057.22;;;12.53;75.88
21760;BME280;11041;50.854;20.580;2023-04-20T09:40:35;99058.34;;;12.52;74.18
21760;BME280;11041;50.854;20.580;2023-04-20T09:43:23;99063.22;;;12.55;74.42
21760;BME280;11041;50.854;20.580;2023-04-20T09:45:51;99052.81;;;12.52;76.08
21760;BME280;11041;50.854;20.580;2023-04-20T09:48:20;99053.84;;;12.65;76.28
21760;BME280;11041;50.854;20.580;2023-04-20T09:50:47;99057.75;;;12.82;75.13
21760;BME280;11041;50.854;20.580;2023-04-20T09:53:18;99062.63;;;12.85;71.64
21760;BME280;11041;50.854;20.580;2023-04-20T09:55:48;99056.94;;;12.81;71.76
21760;BME280;11041;50.854;20.580;2023-04-20T09:58:18;99048.00;;;12.75;72.75
21760;BME280;11041;50.854;20.580;2023-04-20T10:00:49;99052.88;;;12.78;74.43
21760;BME280;11041;50.854;20.580;2023-04-20T10:03:18;99053.22;;;12.86;71.44
21760;BME280;11041;50.854;20.580;2023-04-20T10:05:45;99043.94;;;12.82;70.95
21760;BME280;11041;50.854;20.580;2023-04-20T10:08:12;99036.03;;;12.80;72.01
21760;BME280;11041;50.854;20.580;2023-04-20T10:10:49;99038.78;;;12.89;72.42
21760;BME280;11041;50.854;20.580;2023-04-20T10:13:17;99023.84;;;12.90;70.29
21760;BME280;11041;50.854;20.580;2023-04-20T10:15:46;99027.44;;;12.90;70.52
21760;BME280;11041;50.854;20.580;2023-04-20T10:18:22;99018.19;;;12.95;71.65
21760;BME280;11041;50.854;20.580;2023-04-20T10:20:50;99019.31;;;13.11;72.14
21760;BME280;11041;50.854;20.580;2023-04-20T10:23:17;99022.41;;;13.27;69.17
21760;BME280;11041;50.854;20.580;2023-04-20T10:25:58;99025.16;;;13.45;71.05
21760;BME280;11041;50.854;20.580;2023-04-20T10:28:38;99015.69;;;13.63;68.20
21760;BME280;11041;50.854;20.580;2023-04-20T10:31:06;99017.94;;;13.78;68.74
21760;BME280;11041;50.854;20.580;2023-04-20T10:33:33;99012.47;;;13.99;67.44
21760;BME280;11041;50.854;20.580;2023-04-20T10:36:00;99014.50;;;14.20;67.01
21760;BME280;11041;50.854;20.580;2023-04-20T10:38:34;99016.34;;;14.37;64.49
21760;BME280;11041;50.854;20.580;2023-04-20T10:41:12;99015.16;;;14.55;64.77
21760;BME280;11041;50.854;20.580;2023-04-20T10:43:38;99016.63;;;14.74;64.80
21760;BME280;11041;50.854;20.580;2023-04-20T10:46:28;99008.63;;;14.81;61.77
21760;BME280;11041;50.854;20.580;2023-04-20T10:49:00;99014.09;;;14.89;57.22
21760;BME280;11041;50.854;20.580;2023-04-20T10:51:27;99006.56;;;14.69;55.05
21760;BME280;11041;50.854;20.580;2023-04-20T10:54:06;98998.06;;;14.53;54.10
21760;BME280;11041;50.854;20.580;2023-04-20T10:56:44;99001.81;;;14.48;53.25
21760;BME280;11041;50.854;20.580;2023-04-20T11:01:40;99008.47;;;14.56;53.61
21760;BME280;11041;50.854;20.580;2023-04-20T11:04:09;99002.06;;;14.64;53.00
21760;BME280;11041;50.854;20.580;2023-04-20T11:06:39;98995.78;;;14.76;51.37
21760;BME280;11041;50.854;20.580;2023-04-20T11:09:26;99006.25;;;14.91;53.79
21760;BME280;11041;50.854;20.580;2023-04-20T11:12:03;98988.19;;;14.94;55.15
21760;BME280;11041;50.854;20.580;2023-04-20T11:14:35;98984.59;;;14.94;50.71
21760;BME280;11041;50.854;20.580;2023-04-20T11:17:06;98982.16;;;14.92;49.43
21760;BME280;11041;50.854;20.580;2023-04-20T11:19:36;98985.47;;;15.06;50.78
21760;BME280;11041;50.854;20.580;2023-04-20T11:22:04;98993.22;;;15.13;48.19
21760;BME280;11041;50.854;20.580;2023-04-20T11:24:33;99008.19;;;15.12;46.38
21760;BME280;11041;50.854;20.580;2023-04-20T11:27:01;98988.22;;;15.06;46.64
21760;BME280;11041;50.854;20.580;2023-04-20T11:29:39;98990.94;;;14.94;47.02
21760;BME280;11041;50.854;20.580;2023-04-20T11:32:10;98991.81;;;14.86;48.07
21760;BME280;11041;50.854;20.580;2023-04-20T11:34:38;98997.53;;;14.81;47.13
21760;BME280;11041;50.854;20.580;2023-04-20T11:37:11;98993.81;;;14.77;48.85
21760;BME280;11041;50.854;20.580;2023-04-20T11:39:42;98986.69;;;14.76;48.73
21760;BME280;11041;50.854;20.580;2023-04-20T11:42:08;98990.47;;;14.71;48.23
21760;BME280;11041;50.854;20.580;2023-04-20T11:44:35;99011.50;;;14.63;49.45
21760;BME280;11041;50.854;20.580;2023-04-20T11:47:01;99006.34;;;14.53;50.33
21760;BME280;11041;50.854;20.580;2023-04-20T11:49:28;99001.53;;;14.41;51.12
21760;BME280;11041;50.854;20.580;2023-04-20T11:51:55;99006.38;;;14.44;52.71
21760;BME280;11041;50.854;20.580;2023-04-20T11:54:22;98994.06;;;14.42;53.90
21760;BME280;11041;50.854;20.580;2023-04-20T11:56:48;99002.47;;;14.45;53.06
21760;BME280;11041;50.854;20.580;2023-04-20T11:59:15;99001.00;;;14.48;54.00
21760;BME280;11041;50.854;20.580;2023-04-20T12:01:59;99002.81;;;14.44;53.16
21760;BME280;11041;50.854;20.580;2023-04-20T12:04:30;99000.06;;;14.44;54.05
21760;BME280;11041;50.854;20.580;2023-04-20T12:06:57;98998.41;;;14.43;53.92
21760;BME280;11041;50.854;20.580;2023-04-20T12:09:26;99004.09;;;14.55;53.04
21760;BME280;11041;50.854;20.580;2023-04-20T12:11:53;98994.97;;;14.55;53.05
21760;BME280;11041;50.854;20.580;2023-04-20T12:14:20;98982.38;;;14.66;53.77
21760;BME280;11041;50.854;20.580;2023-04-20T12:16:46;98987.16;;;14.99;55.74
21760;BME280;11041;50.854;20.580;2023-04-20T12:19:13;98991.31;;;15.26;52.70
21760;BME280;11041;50.854;20.580;2023-04-20T12:21:39;98987.63;;;15.34;52.16
21760;BME280;11041;50.854;20.580;2023-04-20T12:24:06;98980.59;;;15.37;52.74
21760;BME280;11041;50.854;20.580;2023-04-20T12:26:32;98971.44;;;15.24;52.26
21760;BME280;11041;50.854;20.580;2023-04-20T12:29:01;98982.06;;;15.22;52.52
21760;BME280;11041;50.854;20.580;2023-04-20T12:31:28;98968.66;;;15.11;53.81
21760;BME280;11041;50.854;20.580;2023-04-20T12:33:54;98966.09;;;15.06;52.26
21760;BME280;11041;50.854;20.580;2023-04-20T12:36:21;98970.00;;;15.05;53.13
21760;BME280;11041;50.854;20.580;2023-04-20T12:38:50;98969.72;;;14.98;52.46
21760;BME280;11041;50.854;20.580;2023-04-20T12:41:21;98967.44;;;15.00;53.66
21760;BME280;11041;50.854;20.580;2023-04-20T12:43:50;98959.56;;;14.90;52.61
21760;BME280;11041;50.854;20.580;2023-04-20T12:46:17;98963.75;;;14.96;53.57
21760;BME280;11041;50.854;20.580;2023-04-20T12:48:43;98961.56;;;15.02;51.70
21760;BME280;11041;50.854;20.580;2023-04-20T12:51:14;98957.53;;;14.99;50.89
21760;BME280;11041;50.854;20.580;2023-04-20T12:53:40;98963.78;;;15.08;52.27
21760;BME280;11041;50.854;20.580;2023-04-20T12:56:07;98946.03;;;15.09;52.36
21760;BME280;11041;50.854;20.580;2023-04-20T12:58:34;98948.50;;;15.23;53.81
21760;BME280;11041;50.854;20.580;2023-04-20T13:01:01;98940.94;;;15.45;53.80
21760;BME280;11041;50.854;20.580;2023-04-20T13:03:28;98940.31;;;15.72;52.27